Pays
Station

 

Conditions  météo  pour  Aeroporto Internacional Val de Cães (Belém/PA)  -  Brésil    Brésil

  
27 °C
    
 
 

METAR pour Aeroporto Internacional Val de Cães (Belém/PA) :

SBBE 150100Z 08008KT 9999 FEW040 27/23 Q1009

 

Voici le bulletin pour Aeroporto Internacional Val de Cães (Belém/PA) - Brésil.
 
Le bulletin a été fait il y a un moment, à 01:00 UTC .
Le vent soufflait à la vitesse de 4.1 mètres par seconde de Est (080°).
 
La température était de 27 °C, avec un point de rosée à 23 °C.
La température ressentie était de 30 °C.
 
La pression atmosphérique était de 1009 hPa.
L'humidité relative était de 78.8%.
 
Il y avait 1 à 2/8ème de nébulosité à une hauteur de 1219 mètres.
 
La visibilité globale était de supérieure à 10 kilomètres.
 

 
 
 

Pays :   A   B   C   D   E   F   G   H   I   J   K   L   M   N   O   P   Q   R   S   T   U   V   W   Y   Z

 

Partenaires :  Info Météo avec Met'info
Météo Marine avec MeteoMarine.net
Infos Site  |  Infos Légales  |  Crédits  |  Confidentialité
Contactez-nous  |  Ajouter aux favoris
© 2013-2018 METAR - Tous droits réservés